Estación Meteorológica Peña el Pijo (Robertgarden) [ 09/24/17 17:43:40 CEST ]

Fecha Hora Presion(HPa) Temp (°C) Humedad % Rocio (°C) Viento ( m/s) Direccion Lluvia 1Hora(mm) Lluvia 24H(mm) LLuvia Total(mm)
2017-Aug-18 01:01:57 1014.300 18.1 72 13.0         1439.00
2017-Aug-18 02:01:43 1014.500 17.0 74 12.3         1439.00
2017-Aug-18 03:01:11 1014.200 16.4 77 12.4         1439.00
2017-Aug-18 04:01:11 1013.700 15.9 78 12.1         1439.00
2017-Aug-18 05:01:11 1013.600 15.4 79 11.8         1439.00
2017-Aug-18 06:01:32 1013.100 14.9 80 11.5         1439.00
2017-Aug-18 07:01:39 1013.200 14.5 79 10.9         1439.00
2017-Aug-18 08:01:37 1013.500 14.3 80 10.9         1439.00
2017-Aug-18 09:01:47 1013.400 19.1 75 14.5         1439.00
2017-Aug-18 10:01:41 1013.200 26.7 54 16.6         1439.00
2017-Aug-18 11:01:38 1013.400 33.3 35 15.6         1439.00
2017-Aug-18 12:01:44 1013.100 37.1 26 14.2         1439.00
2017-Aug-18 13:01:46 1012.700 37.6 23 12.8         1439.00
2017-Aug-18 14:01:53 1012.100 37.9 23 13.0         1439.00
2017-Aug-18 15:01:56 1012.000 38.8 22 13.1         1439.00
2017-Aug-18 16:01:42 1011.500 39.2 22 13.4         1439.00
2017-Aug-18 17:01:49 1010.900 37.2 23 12.4         1439.00
2017-Aug-18 18:01:57 1010.900 35.0 27 13.0         1439.00
2017-Aug-18 19:01:49 1010.900 32.6 31 13.3         1439.00
2017-Aug-18 20:01:44 1011.400 30.5 34 12.8         1439.00
2017-Aug-18 21:01:45 1011.800 27.8 37 11.7         1439.00
2017-Aug-18 22:01:59 1012.500 24.1 46 11.7         1439.00
2017-Aug-18 23:01:53 1012.800 21.8 52 11.5         1439.00

Temperatura Máxima:39°    Temperatura Mínima:14°
Presión Máxima:1014.500 Hpa    Presión Mínima:1010.900 Hpa


Volver